Time;durP1;ratioP1;P1;durP2;ratioP2;P2;SDS_P1;SDS_P2;PMS_P1;PMS_P2;Temp;Humidity;BMP_temperature;BMP_pressure;BME280_temperature;BME280_humidity;BME280_pressure;Samples;Min_cycle;Max_cycle;Signal;HPM_P1;HPM_P2
2021/11/12 00:02:50;;;;;;;28.15;23.40;;;2.70;99.90;;;;;;5057634;28;20729;-86
2021/11/12 00:14:10;;;;;;;28.23;25.20;;;2.70;99.90;;;;;;5061770;28;20195;-85
2021/11/12 00:16:37;;;;;;;32.22;26.38;;;2.70;99.90;;;;;;5068336;28;20216;-85
2021/11/12 00:19:05;;;;;;;32.80;24.67;;;2.70;99.90;;;;;;5068322;28;20227;-85
2021/11/12 00:21:43;;;;;;;25.50;22.90;;;2.70;99.90;;;;;;5068448;28;20227;-86
2021/11/12 00:25:05;;;;;;;;;;;;;;;;;;;;;
2021/11/12 00:27:43;;;;;;;24.88;21.45;;;2.80;99.90;;;;;;5065576;28;20198;-85
2021/11/12 00:30:35;;;;;;;25.70;22.17;;;2.80;99.90;;;;;;5061110;28;20213;-85
2021/11/12 00:33:12;;;;;;;27.23;24.17;;;2.80;99.90;;;;;;5060646;28;20581;-85
2021/11/12 00:35:44;;;;;;;24.05;21.45;;;2.80;99.90;;;;;;5060842;28;20243;-85
2021/11/12 00:38:14;;;;;;;25.17;22.63;;;2.80;99.90;;;;;;5059916;28;20325;-85
2021/11/12 00:40:49;;;;;;;26.55;23.70;;;2.80;99.90;;;;;;5059887;28;20232;-88
2021/11/12 00:43:52;;;;;;;26.98;21.55;;;2.80;99.90;;;;;;5058734;28;20217;-86
2021/11/12 00:46:38;;;;;;;23.83;21.33;;;2.70;99.90;;;;;;5056922;28;20214;-86
2021/11/12 00:49:15;;;;;;;34.25;26.60;;;2.70;99.90;;;;;;5057939;28;20218;-86
2021/11/12 00:52:08;;;;;;;30.15;24.65;;;2.70;99.90;;;;;;5068288;28;20655;-86
2021/11/12 00:54:35;;;;;;;24.52;21.83;;;2.60;99.90;;;;;;5075019;28;20234;-87
2021/11/12 00:57:02;;;;;;;26.35;21.77;;;2.60;99.90;;;;;;5059630;28;20581;-86
2021/11/12 00:59:30;;;;;;;27.77;23.90;;;2.50;99.90;;;;;;5059094;28;20227;-86
2021/11/12 01:01:58;;;;;;;21.50;19.55;;;2.50;99.90;;;;;;5058499;28;20622;-86
2021/11/12 01:04:27;;;;;;;26.52;22.48;;;2.50;99.90;;;;;;5058620;28;20232;-85
2021/11/12 01:06:55;;;;;;;22.85;19.55;;;2.50;99.90;;;;;;5057504;28;20204;-86
2021/11/12 01:10:02;;;;;;;23.27;20.98;;;2.50;99.90;;;;;;5057356;28;20216;-86
2021/11/12 01:15:59;;;;;;;30.40;20.98;;;2.50;99.90;;;;;;5056404;28;20664;-86
2021/11/12 01:18:28;;;;;;;26.30;22.20;;;2.50;99.90;;;;;;5057124;28;20237;-86
2021/11/12 01:20:59;;;;;;;40.70;24.25;;;2.40;99.90;;;;;;5055872;28;20231;-86
2021/11/12 01:23:46;;;;;;;27.70;22.30;;;2.30;99.90;;;;;;5054934;28;20574;-86
2021/11/12 01:26:39;;;;;;;25.38;21.73;;;2.20;99.90;;;;;;5054276;28;20670;-86
2021/11/12 01:29:59;;;;;;;44.90;24.50;;;2.20;99.90;;;;;;5053829;28;20209;-86
2021/11/12 01:32:41;;;;;;;30.60;21.88;;;2.20;99.90;;;;;;5053495;28;20245;-86
2021/11/12 01:41:46;;;;;;;46.00;23.58;;;2.20;99.90;;;;;;5048573;28;20318;-86
2021/11/12 01:44:33;;;;;;;42.92;24.83;;;2.20;99.90;;;;;;5053982;28;20641;-86
2021/11/12 01:47:18;;;;;;;34.53;23.90;;;2.30;99.90;;;;;;5054488;28;20224;-86
2021/11/12 01:49:50;;;;;;;27.55;23.98;;;2.30;99.90;;;;;;5066552;28;20208;-86
2021/11/12 01:52:20;;;;;;;28.95;23.27;;;2.30;99.90;;;;;;5075912;28;20226;-86
2021/11/12 01:54:57;;;;;;;33.55;25.05;;;2.30;99.90;;;;;;5076136;28;20208;-86
2021/11/12 02:03:27;;;;;;;27.73;22.13;;;2.40;99.90;;;;;;5069195;28;20288;-86
2021/11/12 02:06:23;;;;;;;55.13;26.30;;;2.30;99.90;;;;;;5077382;28;20210;-86
2021/11/12 02:09:18;;;;;;;30.42;22.33;;;2.40;99.90;;;;;;5077452;28;20788;-87
2021/11/12 02:15:29;;;;;;;37.50;24.08;;;2.40;99.90;;;;;;5077253;28;20574;-87
2021/11/12 02:18:31;;;;;;;22.98;20.45;;;2.40;99.90;;;;;;5077916;28;20235;-86
2021/11/12 02:28:47;;;;;;;46.42;24.13;;;2.50;99.90;;;;;;4977922;28;20283;-86
2021/11/12 02:31:33;;;;;;;33.00;24.05;;;2.40;99.90;;;;;;5076057;28;20353;-86
2021/11/12 02:34:19;;;;;;;35.72;25.70;;;2.20;99.90;;;;;;5076426;28;20216;-86
2021/11/12 02:37:00;;;;;;;31.92;22.73;;;2.00;99.90;;;;;;5078090;28;20223;-88
2021/11/12 02:39:35;;;;;;;29.10;26.00;;;1.90;99.90;;;;;;5079305;28;20250;-86
2021/11/12 02:42:04;;;;;;;28.35;22.42;;;1.70;99.90;;;;;;5079356;28;20554;-87
2021/11/12 02:44:44;;;;;;;27.60;22.25;;;1.80;99.90;;;;;;5078690;28;20241;-86
2021/11/12 02:47:26;;;;;;;27.73;23.58;;;1.90;99.90;;;;;;5078117;28;20603;-86
2021/11/12 02:50:06;;;;;;;26.35;23.55;;;1.90;99.90;;;;;;5082157;28;20226;-86
2021/11/12 02:52:37;;;;;;;25.25;22.65;;;2.00;99.90;;;;;;5081439;28;20213;-86
2021/11/12 02:55:10;;;;;;;28.30;24.52;;;1.90;99.90;;;;;;5079839;28;20207;-87
2021/11/12 02:57:42;;;;;;;28.33;23.70;;;1.90;99.90;;;;;;5078101;28;20229;-87
2021/11/12 03:00:20;;;;;;;27.63;23.13;;;1.90;99.90;;;;;;5077068;28;20629;-86
2021/11/12 03:02:51;;;;;;;25.20;22.67;;;1.90;99.90;;;;;;5077556;28;20206;-86
2021/11/12 03:05:21;;;;;;;26.95;23.73;;;1.90;99.90;;;;;;5076994;28;20796;-86
2021/11/12 03:07:54;;;;;;;24.20;20.98;;;1.90;99.90;;;;;;5077357;28;20202;-86
2021/11/12 03:10:28;;;;;;;27.83;21.42;;;1.90;99.90;;;;;;5077061;28;20551;-86
2021/11/12 03:13:01;;;;;;;25.02;22.17;;;2.00;99.90;;;;;;5077238;28;20246;-86
2021/11/12 03:15:35;;;;;;;25.45;22.23;;;2.00;99.90;;;;;;5077926;28;20238;-86
2021/11/12 03:18:02;;;;;;;24.83;22.23;;;2.00;99.90;;;;;;5076670;28;20199;-85
2021/11/12 03:20:33;;;;;;;29.15;23.63;;;2.00;99.90;;;;;;5058350;28;20229;-86
2021/11/12 03:23:05;;;;;;;35.22;28.25;;;2.00;99.90;;;;;;5059162;28;20212;-86
2021/11/12 03:25:36;;;;;;;28.88;22.55;;;2.10;99.90;;;;;;5077049;28;20266;-86
2021/11/12 03:28:19;;;;;;;27.10;22.10;;;2.00;99.90;;;;;;5077340;28;20217;-86
2021/11/12 04:01:53;;;;;;;28.15;24.25;;;2.00;99.90;;;;;;5056995;28;20304;-88
2021/11/12 04:04:46;;;;;;;37.85;26.55;;;2.00;99.90;;;;;;5060089;28;20225;-87
2021/11/12 04:18:42;;;;;;;31.38;21.95;;;2.00;99.90;;;;;;5057656;28;20207;-86
2021/11/12 04:21:39;;;;;;;32.15;20.92;;;1.90;99.90;;;;;;5056780;28;20231;-86
2021/11/12 05:46:23;;;;;;;53.55;26.25;;;2.30;99.90;;;;;;5054797;28;20193;-86
2021/11/12 05:51:57;;;;;;;28.52;22.67;;;2.40;99.90;;;;;;5079109;28;20768;-86
2021/11/12 05:57:10;;;;;;;90.43;30.58;;;2.30;99.90;;;;;;5078553;28;20573;-86
2021/11/12 05:59:38;;;;;;;43.22;29.33;;;2.20;99.90;;;;;;5078004;28;20251;-86
2021/11/12 06:02:05;;;;;;;100.05;29.75;;;2.30;99.90;;;;;;5081357;28;20246;-86
2021/11/12 06:04:32;;;;;;;60.15;28.90;;;2.30;99.90;;;;;;5073602;28;20207;-86
2021/11/12 06:06:59;;;;;;;70.65;29.60;;;2.30;99.90;;;;;;5062894;28;20212;-86
2021/11/12 06:09:26;;;;;;;51.17;28.02;;;2.20;99.90;;;;;;5063731;28;20203;-88
2021/11/12 06:11:54;;;;;;;30.67;25.50;;;2.20;99.90;;;;;;5066185;28;20230;-88
2021/11/12 06:14:25;;;;;;;42.88;27.23;;;2.20;99.90;;;;;;5082305;28;20224;-86
2021/11/12 06:16:53;;;;;;;84.05;33.47;;;2.20;99.90;;;;;;5077518;28;20634;-86
2021/11/12 06:19:20;;;;;;;30.15;23.30;;;2.20;99.90;;;;;;5060830;28;20265;-87
2021/11/12 06:21:50;;;;;;;62.97;29.63;;;2.30;99.90;;;;;;5060276;28;20327;-87
2021/11/12 06:24:19;;;;;;;90.50;32.58;;;2.30;99.90;;;;;;5068570;28;20197;-86
2021/11/12 06:26:46;;;;;;;41.08;26.30;;;2.30;99.90;;;;;;5081004;28;20205;-86
2021/11/12 06:29:13;;;;;;;42.83;24.75;;;2.30;99.90;;;;;;5078362;28;20226;-86
2021/11/12 06:31:42;;;;;;;62.75;32.20;;;2.30;99.90;;;;;;5063242;28;20267;-86
2021/11/12 06:34:27;;;;;;;62.83;31.27;;;2.30;99.90;;;;;;5060509;28;20208;-85
2021/11/12 06:37:02;;;;;;;36.35;27.05;;;2.30;99.90;;;;;;5057547;28;20305;-85
2021/11/12 06:39:33;;;;;;;41.63;27.73;;;2.30;99.90;;;;;;5059069;28;20222;-84
2021/11/12 06:42:03;;;;;;;53.85;29.92;;;2.30;99.90;;;;;;5067670;28;20306;-83
2021/11/12 06:50:13;;;;;;;56.17;30.60;;;2.00;99.90;;;;;;5061597;28;20244;-84
2021/11/12 06:52:41;;;;;;;52.90;29.60;;;2.00;99.90;;;;;;5078935;28;20201;-85
2021/11/12 06:55:10;;;;;;;61.92;31.58;;;1.90;99.90;;;;;;5072771;28;20237;-85
2021/11/12 06:57:41;;;;;;;74.80;33.38;;;1.90;99.90;;;;;;5077458;28;20206;-85
2021/11/12 07:00:20;;;;;;;42.17;28.80;;;1.60;99.90;;;;;;5081022;28;20215;-85
2021/11/12 07:02:51;;;;;;;79.90;33.08;;;1.60;99.90;;;;;;5060873;28;20273;-85
2021/11/12 07:05:18;;;;;;;47.90;30.73;;;1.70;99.90;;;;;;5061013;28;20236;-85
2021/11/12 07:07:47;;;;;;;41.80;28.55;;;1.80;99.90;;;;;;5068692;28;20204;-85
2021/11/12 07:10:23;;;;;;;43.83;30.30;;;1.90;99.90;;;;;;5064374;28;20195;-85
2021/11/12 07:12:51;;;;;;;48.35;29.92;;;2.10;99.90;;;;;;5069044;28;20214;-85
2021/11/12 07:15:19;;;;;;;52.95;28.80;;;2.20;99.90;;;;;;5066893;28;20252;-85
2021/11/12 07:17:47;;;;;;;78.10;33.08;;;2.00;99.90;;;;;;5069794;28;20211;-85
2021/11/12 07:20:14;;;;;;;38.47;27.75;;;1.90;99.90;;;;;;5068584;28;20220;-86
2021/11/12 07:22:41;;;;;;;49.05;30.13;;;2.10;99.90;;;;;;5066601;28;20574;-85
2021/11/12 07:25:14;;;;;;;39.65;25.70;;;2.20;99.90;;;;;;5066256;28;20688;-85
2021/11/12 07:27:41;;;;;;;55.80;32.00;;;2.40;99.90;;;;;;5069956;28;20253;-85
2021/11/12 07:30:13;;;;;;;54.58;33.75;;;2.40;99.90;;;;;;5065887;28;20210;-85
2021/11/12 07:32:44;;;;;;;55.92;30.15;;;2.40;99.90;;;;;;5064885;28;20207;-85
2021/11/12 07:35:22;;;;;;;45.85;31.17;;;2.50;99.90;;;;;;5072047;28;20258;-85
2021/11/12 07:37:50;;;;;;;46.30;31.95;;;2.50;99.90;;;;;;5068155;28;20212;-86
2021/11/12 07:40:24;;;;;;;76.65;34.95;;;2.50;99.90;;;;;;5073464;28;20217;-85
2021/11/12 07:43:16;;;;;;;46.58;31.40;;;2.40;99.90;;;;;;5075039;28;20231;-85
2021/11/12 07:45:52;;;;;;;64.95;32.30;;;2.50;99.90;;;;;;5069467;28;20699;-86
2021/11/12 07:48:24;;;;;;;98.65;35.15;;;2.60;99.90;;;;;;5073387;28;20210;-85
2021/11/12 07:50:52;;;;;;;63.05;30.63;;;2.60;99.90;;;;;;5075917;28;20220;-85
2021/11/12 07:53:19;;;;;;;61.45;32.65;;;2.70;99.90;;;;;;5076496;28;20199;-86
2021/11/12 07:55:45;;;;;;;62.65;32.33;;;2.80;99.90;;;;;;5065466;28;20231;-85
2021/11/12 07:58:13;;;;;;;45.85;30.05;;;3.00;99.90;;;;;;5068857;28;20201;-86
2021/11/12 08:00:40;;;;;;;35.85;28.48;;;3.00;99.90;;;;;;5066319;28;20599;-85
2021/11/12 08:03:07;;;;;;;59.10;29.48;;;3.00;99.90;;;;;;5066487;28;20288;-86
2021/11/12 08:05:38;;;;;;;43.55;29.95;;;3.10;99.90;;;;;;5064017;28;20205;-86
2021/11/12 08:08:09;;;;;;;58.00;33.67;;;3.20;99.90;;;;;;5076020;28;20229;-86
2021/11/12 08:10:39;;;;;;;43.28;30.00;;;3.00;99.90;;;;;;5079557;28;21763;-85
2021/11/12 08:13:11;;;;;;;39.72;29.38;;;3.20;99.90;;;;;;5064878;28;20204;-85
2021/11/12 08:15:46;;;;;;;49.90;28.52;;;3.20;99.90;;;;;;5063795;28;20216;-85
2021/11/12 08:18:32;;;;;;;56.88;30.27;;;3.30;99.90;;;;;;5067237;28;20205;-85
2021/11/12 08:21:02;;;;;;;43.40;29.27;;;3.30;99.90;;;;;;5066336;28;20236;-85
2021/11/12 08:23:41;;;;;;;56.55;29.63;;;3.40;99.90;;;;;;5084820;28;20291;-84
2021/11/12 08:26:11;;;;;;;37.33;27.58;;;3.60;99.90;;;;;;5075378;28;20200;-85
2021/11/12 08:29:01;;;;;;;43.47;30.00;;;3.70;99.90;;;;;;5061874;28;20213;-85
2021/11/12 08:31:35;;;;;;;40.10;27.65;;;3.80;99.90;;;;;;5073357;28;20225;-84
2021/11/12 08:34:06;;;;;;;32.40;24.90;;;3.80;99.90;;;;;;5080783;28;20215;-85
2021/11/12 08:39:31;;;;;;;31.02;24.80;;;3.90;99.90;;;;;;5061524;28;20219;-84
2021/11/12 08:42:02;;;;;;;36.03;24.33;;;4.00;99.90;;;;;;5059387;28;20221;-83
2021/11/12 08:44:35;;;;;;;29.80;23.08;;;4.20;99.90;;;;;;5058990;28;20726;-84
2021/11/12 08:47:07;;;;;;;28.63;25.30;;;4.30;99.90;;;;;;5057768;28;20213;-84
2021/11/12 08:49:37;;;;;;;32.00;25.92;;;4.40;99.90;;;;;;5084109;28;20189;-84
2021/11/12 08:52:40;;;;;;;27.45;23.58;;;4.50;99.90;;;;;;5076934;28;20225;-85
2021/11/12 08:55:55;;;;;;;;;;;;;;;;;;;;;
2021/11/12 09:01:57;;;;;;;;;;;;;;;;;;;;;
2021/11/12 09:04:24;;;;;;;33.58;28.80;;;5.10;99.90;;;;;;4967872;29;20209;-85
2021/11/12 09:06:51;;;;;;;32.85;24.75;;;5.30;99.90;;;;;;5044431;28;20216;-83
2021/11/12 09:09:18;;;;;;;32.83;25.10;;;5.50;99.90;;;;;;5078651;28;20205;-82
2021/11/12 09:11:47;;;;;;;32.33;24.73;;;5.60;99.90;;;;;;5090637;28;20225;-83
2021/11/12 09:14:16;;;;;;;28.70;25.20;;;5.80;99.90;;;;;;5082994;28;20211;-84
2021/11/12 09:16:52;;;;;;;27.73;24.45;;;6.00;99.90;;;;;;5080645;28;20601;-84
2021/11/12 09:26:32;;;;;;;26.30;23.30;;;6.10;99.90;;;;;;4944502;28;20204;-86
2021/11/12 09:29:37;;;;;;;25.05;22.67;;;6.10;99.90;;;;;;5060165;28;20205;-85
2021/11/12 09:32:07;;;;;;;24.08;21.58;;;6.10;99.90;;;;;;5016622;28;20318;-85
2021/11/12 09:34:37;;;;;;;26.75;21.52;;;6.10;99.90;;;;;;5001926;28;20196;-86
2021/11/12 09:37:05;;;;;;;27.75;21.75;;;6.20;99.90;;;;;;5033857;28;20227;-86
2021/11/12 09:39:32;;;;;;;25.17;22.13;;;6.20;99.90;;;;;;5079834;28;20209;-85
2021/11/12 09:42:00;;;;;;;26.88;23.63;;;6.20;99.90;;;;;;5076516;28;20221;-85
2021/11/12 09:44:28;;;;;;;29.80;23.00;;;6.40;99.90;;;;;;5061843;28;20271;-85
2021/11/12 09:46:57;;;;;;;28.02;24.55;;;6.50;99.90;;;;;;5080885;28;20231;-86
2021/11/12 09:49:24;;;;;;;25.95;23.25;;;6.60;99.90;;;;;;5065497;28;20194;-82
2021/11/12 09:51:51;;;;;;;22.50;20.30;;;6.60;99.90;;;;;;5060027;28;20237;-82
2021/11/12 09:54:18;;;;;;;27.52;23.15;;;6.70;99.90;;;;;;5075441;28;20212;-83
2021/11/12 09:56:45;;;;;;;22.55;20.35;;;6.80;99.90;;;;;;5059158;28;20561;-82
2021/11/12 09:59:13;;;;;;;24.50;20.90;;;6.80;99.90;;;;;;5073796;28;20209;-84
2021/11/12 10:01:40;;;;;;;24.45;21.80;;;6.60;99.90;;;;;;5080307;28;20596;-84
2021/11/12 10:04:10;;;;;;;24.60;20.73;;;6.60;99.90;;;;;;5080213;28;20200;-83
2021/11/12 10:06:38;;;;;;;27.27;22.02;;;6.70;99.90;;;;;;5079658;28;20212;-83
2021/11/12 10:09:14;;;;;;;26.10;22.42;;;6.90;99.90;;;;;;5079504;28;20217;-84
2021/11/12 10:11:49;;;;;;;28.13;25.05;;;6.90;99.90;;;;;;5080978;28;20220;-83
2021/11/12 10:14:24;;;;;;;30.63;26.15;;;7.10;99.90;;;;;;5081476;28;20264;-83
2021/11/12 10:16:57;;;;;;;25.73;23.02;;;7.30;99.90;;;;;;5062419;28;20283;-83
2021/11/12 10:19:26;;;;;;;33.63;26.55;;;7.50;99.90;;;;;;5062877;28;20202;-82
2021/11/12 10:21:56;;;;;;;30.45;27.13;;;7.50;99.90;;;;;;5075103;28;20272;-83
2021/11/12 10:24:28;;;;;;;30.33;26.42;;;7.60;99.90;;;;;;5067685;28;20225;-84
2021/11/12 10:26:58;;;;;;;29.38;26.02;;;7.60;99.90;;;;;;5071776;28;20220;-84
2021/11/12 10:29:31;;;;;;;33.85;25.17;;;7.80;99.90;;;;;;5083740;28;20262;-84
2021/11/12 10:32:07;;;;;;;30.88;26.45;;;8.00;99.90;;;;;;5076742;28;20229;-83
2021/11/12 10:34:42;;;;;;;29.55;25.67;;;8.00;99.90;;;;;;5063297;28;20206;-84
2021/11/12 10:37:16;;;;;;;27.50;24.60;;;8.00;99.90;;;;;;5069679;28;20209;-84
2021/11/12 10:39:46;;;;;;;27.63;23.08;;;8.30;99.90;;;;;;5064820;28;20217;-84
2021/11/12 10:42:15;;;;;;;27.90;25.00;;;8.40;99.90;;;;;;5062933;28;20233;-83
2021/11/12 10:44:45;;;;;;;25.35;22.63;;;8.60;99.90;;;;;;5062610;28;20206;-83
2021/11/12 10:47:12;;;;;;;26.67;23.85;;;8.60;99.90;;;;;;5062974;28;20203;-83
2021/11/12 10:49:43;;;;;;;24.45;21.85;;;8.50;99.90;;;;;;5062104;28;20202;-84
2021/11/12 10:52:13;;;;;;;27.10;24.15;;;8.40;99.90;;;;;;5062903;28;20261;-83
2021/11/12 10:54:50;;;;;;;30.45;23.45;;;8.30;99.90;;;;;;5063004;28;20206;-83
2021/11/12 10:57:18;;;;;;;24.60;22.05;;;8.10;99.90;;;;;;5074329;28;20223;-83
2021/11/12 11:00:01;;;;;;;31.05;25.35;;;8.10;99.90;;;;;;5084530;28;20621;-83
2021/11/12 11:02:31;;;;;;;31.90;23.88;;;8.20;99.90;;;;;;5081826;28;20228;-84
2021/11/12 11:05:03;;;;;;;27.38;24.67;;;8.20;99.90;;;;;;5080318;28;20197;-84
2021/11/12 11:07:29;;;;;;;29.13;22.38;;;8.20;99.90;;;;;;5076998;28;20198;-85
2021/11/12 11:09:58;;;;;;;25.83;22.85;;;8.20;99.90;;;;;;5068795;28;20198;-84
2021/11/12 11:12:40;;;;;;;26.23;23.52;;;8.20;99.90;;;;;;5067279;28;20229;-84
2021/11/12 11:15:30;;;;;;;28.80;24.52;;;8.30;99.90;;;;;;5067928;28;20206;-84
2021/11/12 11:18:35;;;;;;;30.05;24.00;;;8.40;99.90;;;;;;5079243;28;20189;-83
2021/11/12 11:24:04;;;;;;;28.55;23.33;;;8.40;99.90;;;;;;5096921;28;20471;-85
2021/11/12 11:26:41;;;;;;;27.13;21.65;;;8.30;99.90;;;;;;5098395;28;20170;-85
2021/11/12 11:29:10;;;;;;;27.90;22.67;;;8.30;99.90;;;;;;5090904;28;20265;-84
2021/11/12 11:31:43;;;;;;;27.35;23.75;;;8.30;99.90;;;;;;5072935;28;20213;-81
2021/11/12 11:34:11;;;;;;;25.85;23.00;;;8.30;99.90;;;;;;5065003;28;20213;-86
2021/11/12 11:36:44;;;;;;;30.10;24.00;;;8.40;99.90;;;;;;5081790;28;20235;-85
2021/11/12 11:39:13;;;;;;;28.38;22.52;;;8.50;99.90;;;;;;5063944;28;20216;-83
2021/11/12 11:41:43;;;;;;;25.17;22.58;;;8.60;99.90;;;;;;5060907;28;20237;-83
2021/11/12 11:44:10;;;;;;;28.58;24.48;;;8.80;99.90;;;;;;5080256;28;20241;-82
2021/11/12 11:51:02;;;;;;;24.92;21.40;;;9.20;99.90;;;;;;5081044;28;20604;-83
2021/11/12 14:12:33;;;;;;;32.43;29.03;;;13.80;87.70;;;;;;5988539;24;20394;-85
2021/11/12 14:15:09;;;;;;;33.50;29.90;;;13.40;89.40;;;;;;6008735;23;20429;-83
2021/11/12 14:17:46;;;;;;;33.03;28.40;;;12.90;90.20;;;;;;6222580;23;20415;-82
2021/11/12 14:20:20;;;;;;;32.60;29.07;;;12.50;91.00;;;;;;6223237;23;20440;-82
2021/11/12 14:22:52;;;;;;;35.37;28.13;;;12.20;91.80;;;;;;6223024;23;20400;-81
2021/11/12 14:25:28;;;;;;;33.53;29.67;;;11.90;92.40;;;;;;6222955;23;20772;-82
2021/11/12 14:28:16;;;;;;;31.30;28.00;;;11.50;92.80;;;;;;6222728;23;20707;-82
2021/11/12 14:31:00;;;;;;;37.92;30.75;;;11.00;93.60;;;;;;6221810;23;20482;-81
2021/11/12 14:33:35;;;;;;;35.25;29.58;;;10.20;94.70;;;;;;6221660;23;20219;-82
2021/11/12 14:36:28;;;;;;;40.13;31.13;;;9.60;96.80;;;;;;6226084;23;20195;-80
2021/11/12 14:39:08;;;;;;;38.85;32.92;;;9.10;98.80;;;;;;6223806;23;20221;-80
2021/11/12 14:42:03;;;;;;;35.92;26.63;;;8.70;99.90;;;;;;6228178;23;20198;-81
2021/11/12 14:47:21;;;;;;;37.88;33.72;;;7.70;99.90;;;;;;6222932;23;20178;-84
2021/11/12 14:49:56;;;;;;;40.03;33.10;;;7.50;99.90;;;;;;6223241;23;20166;-82
2021/11/12 14:52:24;;;;;;;49.00;34.15;;;7.30;99.90;;;;;;6217066;23;20283;-80
2021/11/12 14:55:04;;;;;;;42.95;31.08;;;7.10;99.90;;;;;;6219327;23;20166;-84
2021/11/12 14:57:33;;;;;;;40.95;31.92;;;6.60;99.90;;;;;;6221478;23;20166;-79
2021/11/12 15:00:06;;;;;;;41.83;32.92;;;6.10;99.90;;;;;;6218045;23;20204;-80
2021/11/12 15:02:36;;;;;;;42.05;33.15;;;5.80;99.90;;;;;;6217244;23;20197;-80
2021/11/12 15:05:03;;;;;;;43.00;31.85;;;5.70;99.90;;;;;;6218441;23;20188;-80
2021/11/12 15:07:35;;;;;;;44.53;32.28;;;5.70;99.90;;;;;;6218049;23;20634;-83
2021/11/12 15:10:03;;;;;;;45.22;32.92;;;5.50;99.90;;;;;;6219635;23;20208;-81
2021/11/12 15:12:29;;;;;;;49.25;34.45;;;5.30;99.90;;;;;;6228476;23;20210;-82
2021/11/12 15:14:58;;;;;;;42.63;33.08;;;5.10;99.90;;;;;;6218904;23;20193;-79
2021/11/12 15:17:29;;;;;;;45.03;30.60;;;5.00;99.90;;;;;;6219338;23;20181;-81
2021/11/12 15:20:00;;;;;;;48.47;33.75;;;4.90;99.90;;;;;;6218060;23;20185;-80
2021/11/12 16:27:59;;;;;;;39.70;28.40;;;4.40;99.90;;;;;;5991164;24;20226;-83
2021/11/12 16:37:32;;;;;;;61.65;30.50;;;4.30;99.90;;;;;;6101491;23;20168;-84
2021/11/12 16:47:45;;;;;;;53.28;31.70;;;4.70;99.90;;;;;;5804035;24;20198;-85
2021/11/12 16:50:25;;;;;;;53.70;31.30;;;4.60;99.90;;;;;;6072601;23;20239;-84
2021/11/12 16:58:25;;;;;;;47.40;29.85;;;4.80;99.90;;;;;;6145610;23;20186;-83
2021/11/12 17:04:12;;;;;;;64.22;31.77;;;5.00;99.90;;;;;;6159267;23;20175;-84
2021/11/12 17:06:43;;;;;;;42.17;30.35;;;5.20;99.90;;;;;;6164864;23;20167;-84
2021/11/12 17:09:22;;;;;;;44.85;30.02;;;5.20;99.90;;;;;;6224156;23;20166;-84
2021/11/12 17:11:53;;;;;;;53.67;30.35;;;5.20;99.90;;;;;;6227964;23;20207;-82
2021/11/12 17:14:31;;;;;;;50.75;29.80;;;5.20;99.90;;;;;;6226729;23;20202;-84
2021/11/12 17:17:24;;;;;;;34.90;26.40;;;5.20;99.90;;;;;;6223201;23;20254;-83
2021/11/12 17:20:07;;;;;;;37.83;27.42;;;5.20;99.90;;;;;;6222963;23;20522;-84
2021/11/12 17:44:54;;;;;;;45.63;25.50;;;5.10;99.90;;;;;;6222976;23;20168;-83
2021/11/12 17:47:23;;;;;;;62.88;29.58;;;5.10;99.90;;;;;;6223867;23;20162;-84
2021/11/12 17:49:58;;;;;;;46.92;24.92;;;5.00;99.90;;;;;;6224541;23;20178;-83
2021/11/12 18:03:27;;;;;;;65.68;32.28;;;4.90;99.90;;;;;;6235154;22;20165;-83
2021/11/12 18:05:55;;;;;;;38.83;26.77;;;4.90;99.90;;;;;;6228660;23;20207;-83
2021/11/12 18:11:35;;;;;;;66.57;28.42;;;4.90;99.90;;;;;;6224328;23;20193;-83
2021/11/12 21:45:47;;;;;;;34.10;23.45;;;3.00;99.90;;;;;;6225208;23;20162;-85
2021/11/12 21:48:14;;;;;;;43.42;23.83;;;3.00;99.90;;;;;;6225463;23;20534;-84
2021/11/12 21:50:42;;;;;;;39.05;24.60;;;2.90;99.90;;;;;;6224759;23;20311;-84
2021/11/12 21:53:09;;;;;;;27.35;22.40;;;2.90;99.90;;;;;;6224637;23;20193;-84
2021/11/12 21:55:36;;;;;;;34.08;21.98;;;2.90;99.90;;;;;;6225223;23;20181;-84
2021/11/12 21:58:04;;;;;;;34.72;22.35;;;2.90;99.90;;;;;;6224733;23;20239;-84
2021/11/12 22:00:32;;;;;;;31.27;22.40;;;3.00;99.90;;;;;;6224819;23;20211;-84
2021/11/12 22:02:59;;;;;;;38.53;23.38;;;3.00;99.90;;;;;;6224327;23;20194;-85
2021/11/12 22:05:27;;;;;;;42.15;22.33;;;2.90;99.90;;;;;;6224208;23;20181;-85
2021/11/12 22:07:55;;;;;;;29.58;23.10;;;2.90;99.90;;;;;;6225035;23;20192;-84
2021/11/12 22:10:21;;;;;;;33.10;22.75;;;2.80;99.90;;;;;;6224178;23;20231;-84
2021/11/12 22:12:48;;;;;;;30.25;22.85;;;2.80;99.90;;;;;;6223449;23;20179;-84
2021/11/12 22:15:15;;;;;;;39.42;24.33;;;2.80;99.90;;;;;;6224519;23;20190;-85
2021/11/12 22:17:43;;;;;;;29.52;21.02;;;2.80;99.90;;;;;;6224644;23;20178;-84
2021/11/12 22:20:12;;;;;;;27.10;21.33;;;2.80;99.90;;;;;;6224649;23;20203;-85
2021/11/12 22:22:39;;;;;;;28.13;22.50;;;2.80;99.90;;;;;;6224251;23;20271;-84
2021/11/12 22:25:09;;;;;;;33.47;22.05;;;2.80;99.90;;;;;;6224332;23;20180;-84
2021/11/12 22:27:36;;;;;;;33.75;24.65;;;2.90;99.90;;;;;;6224784;23;20183;-84
2021/11/12 22:30:04;;;;;;;29.77;22.45;;;2.90;99.90;;;;;;6224080;23;20183;-84
2021/11/12 22:32:31;;;;;;;26.70;21.52;;;2.80;99.90;;;;;;6224897;23;20199;-85
2021/11/12 22:34:57;;;;;;;32.97;22.38;;;2.90;99.90;;;;;;6225567;23;20189;-84
2021/11/12 22:37:24;;;;;;;25.92;23.23;;;2.90;99.90;;;;;;6225281;23;20198;-84
2021/11/12 22:39:51;;;;;;;24.75;20.08;;;2.90;99.90;;;;;;6226345;23;20190;-83
2021/11/12 22:42:20;;;;;;;28.65;22.13;;;2.90;99.90;;;;;;6226093;23;20208;-84
2021/11/12 22:44:47;;;;;;;27.48;23.98;;;2.80;99.90;;;;;;6227291;23;20189;-83
2021/11/12 22:47:15;;;;;;;28.42;21.52;;;2.80;99.90;;;;;;6227549;23;20234;-83
2021/11/12 22:49:42;;;;;;;28.35;20.70;;;2.80;99.90;;;;;;6227394;23;20183;-84
2021/11/12 22:52:09;;;;;;;23.52;19.23;;;2.80;99.90;;;;;;6225752;23;20244;-84
2021/11/12 22:54:36;;;;;;;34.65;21.08;;;2.90;99.90;;;;;;6227248;23;20162;-84
2021/11/12 22:57:04;;;;;;;40.15;22.83;;;2.80;99.90;;;;;;6226504;23;20184;-85
2021/11/12 22:59:32;;;;;;;27.73;22.05;;;2.90;99.90;;;;;;6227299;23;20651;-85
2021/11/12 23:01:58;;;;;;;42.00;22.95;;;2.80;99.90;;;;;;6226626;23;20520;-84
2021/11/12 23:04:25;;;;;;;24.73;20.75;;;2.80;99.90;;;;;;6226518;23;20193;-85
2021/11/12 23:06:52;;;;;;;23.70;20.95;;;2.80;99.90;;;;;;6226201;23;20188;-86
2021/11/12 23:09:20;;;;;;;26.48;22.85;;;2.80;99.90;;;;;;6226347;23;20183;-87
2021/11/12 23:11:47;;;;;;;22.17;19.88;;;2.80;99.90;;;;;;6228107;23;20219;-86
2021/11/12 23:14:14;;;;;;;35.83;23.75;;;2.80;99.90;;;;;;6229660;23;20208;-86
2021/11/12 23:16:43;;;;;;;39.70;23.75;;;2.80;99.90;;;;;;6229133;23;20193;-86
2021/11/12 23:19:10;;;;;;;41.42;22.17;;;2.80;99.90;;;;;;6228766;23;20196;-87
2021/11/12 23:21:37;;;;;;;23.90;21.75;;;2.80;99.90;;;;;;6223984;23;20203;-87
2021/11/12 23:24:04;;;;;;;24.65;20.45;;;2.80;99.90;;;;;;6221366;23;20181;-86
2021/11/12 23:26:31;;;;;;;25.33;20.52;;;2.80;99.90;;;;;;6223297;23;20181;-85
2021/11/12 23:28:58;;;;;;;35.25;19.25;;;2.80;99.90;;;;;;6222252;23;20496;-86
2021/11/12 23:31:25;;;;;;;43.70;22.77;;;2.70;99.90;;;;;;6222891;23;20261;-85
2021/11/12 23:33:54;;;;;;;20.63;18.40;;;2.70;99.90;;;;;;6222859;23;20190;-86
2021/11/12 23:36:21;;;;;;;27.27;21.60;;;2.70;99.90;;;;;;6222641;23;20178;-86
2021/11/12 23:38:48;;;;;;;39.95;22.45;;;2.70;99.90;;;;;;6223067;23;20180;-87
2021/11/12 23:41:18;;;;;;;46.67;22.52;;;2.70;99.90;;;;;;6222610;23;20231;-86
2021/11/12 23:43:45;;;;;;;33.47;21.88;;;2.70;99.90;;;;;;6222589;23;20334;-87
2021/11/12 23:46:12;;;;;;;34.47;22.80;;;2.60;99.90;;;;;;6222369;23;20721;-86
2021/11/12 23:48:39;;;;;;;24.55;22.13;;;2.60;99.90;;;;;;6221681;23;20197;-86
2021/11/12 23:51:07;;;;;;;45.38;24.70;;;2.60;99.90;;;;;;6222111;23;20198;-86
2021/11/12 23:53:34;;;;;;;57.00;23.10;;;2.60;99.90;;;;;;6222216;23;20236;-85
2021/11/12 23:56:01;;;;;;;53.10;24.58;;;2.70;99.90;;;;;;6226285;23;20180;-86
2021/11/12 23:58:28;;;;;;;73.78;25.45;;;2.70;99.90;;;;;;6231630;22;20254;-87
